createdAt,value
2022-08-05T00:01:56.604Z,97772.44
2022-08-05T00:04:37.348Z,97768.56
2022-08-05T00:07:26.763Z,97766.81
2022-08-05T00:09:59.095Z,97766.56
2022-08-05T00:12:28.469Z,97765.63
2022-08-05T00:14:57.759Z,97762.53
2022-08-05T00:17:27.002Z,97759.41
2022-08-05T00:20:02.043Z,97757.06
2022-08-05T00:22:32.379Z,97760.19
2022-08-05T00:25:02.073Z,97755.66
2022-08-05T00:27:37.680Z,97761.66
2022-08-05T00:30:12.999Z,97757.97
2022-08-05T00:32:42.381Z,97758.38
2022-08-05T00:35:12.026Z,97751.03
2022-08-05T00:37:52.313Z,97752.22
2022-08-05T00:40:26.931Z,97753.34
2022-08-05T00:43:02.239Z,97749.53
2022-08-05T00:45:42.952Z,97746.41
2022-08-05T00:48:15.772Z,97748.78
2022-08-05T00:50:47.702Z,97749.81
2022-08-05T00:53:45.267Z,97748.81
2022-08-05T00:56:08.834Z,97752.63
2022-08-05T00:58:38.362Z,97751.69
2022-08-05T01:01:08.880Z,97740.31
2022-08-05T01:03:39.759Z,97741.66
2022-08-05T01:06:11.213Z,97737.19
2022-08-05T01:08:44.574Z,97736.88
2022-08-05T01:11:22.213Z,97745.78
2022-08-05T01:14:02.695Z,97744.00
2022-08-05T01:16:46.718Z,97738.09
2022-08-05T01:19:56.994Z,97739.34
2022-08-05T01:22:41.641Z,97749.66
2022-08-05T01:25:22.720Z,97736.81
2022-08-05T01:28:19.010Z,97739.28
2022-08-05T01:30:55.669Z,97737.03
2022-08-05T01:33:35.446Z,97726.34
2022-08-05T01:36:13.015Z,97736.59
2022-08-05T01:38:48.448Z,97729.94
2022-08-05T01:41:21.825Z,97727.66
2022-08-05T01:43:53.093Z,97729.41
2022-08-05T01:46:42.313Z,97725.03
2022-08-05T01:49:22.924Z,97717.91
2022-08-05T01:51:58.237Z,97713.44
2022-08-05T01:54:31.318Z,97720.38
2022-08-05T01:58:11.541Z,97718.81
2022-08-05T01:59:54.438Z,97714.44
2022-08-05T02:02:26.259Z,97712.91
2022-08-05T02:05:00.711Z,97715.44
2022-08-05T02:07:30.445Z,97711.09
2022-08-05T02:10:00.502Z,97710.91
2022-08-05T02:13:16.233Z,97718.31
2022-08-05T02:15:48.668Z,97712.88
2022-08-05T02:18:42.099Z,97720.66
2022-08-05T02:21:21.483Z,97722.34
2022-08-05T02:23:55.569Z,97721.13
2022-08-05T02:26:28.714Z,97720.28
2022-08-05T02:28:58.924Z,97730.94
2022-08-05T02:31:34.624Z,97729.97
2022-08-05T02:34:09.322Z,97731.41
2022-08-05T02:36:42.747Z,97735.75
2022-08-05T02:39:12.696Z,97730.91
2022-08-05T02:42:00.797Z,97729.81
2022-08-05T02:44:31.562Z,97733.00
2022-08-05T02:47:01.606Z,97736.16
2022-08-05T02:49:42.699Z,97734.34
2022-08-05T02:52:29.303Z,97728.88
2022-08-05T02:55:01.508Z,97730.22
2022-08-05T02:58:09.912Z,97731.94
2022-08-05T03:00:21.931Z,97741.03
2022-08-05T03:02:51.488Z,97727.44
2022-08-05T03:06:56.395Z,97720.31
2022-08-05T03:08:13.600Z,97725.78
2022-08-05T03:11:53.792Z,97723.38
2022-08-05T03:13:51.758Z,97728.13
2022-08-05T03:16:25.586Z,97727.97
2022-08-05T03:18:57.388Z,97723.84
2022-08-05T03:21:28.719Z,97724.72
2022-08-05T03:23:58.362Z,97719.56
2022-08-05T03:26:31.902Z,97722.34
2022-08-05T03:29:01.883Z,97727.28
2022-08-05T03:31:56.044Z,97730.31
2022-08-05T03:34:24.301Z,97732.16
2022-08-05T03:36:53.851Z,97740.41
2022-08-05T03:39:27.210Z,97747.28
2022-08-05T03:41:58.123Z,97742.31
2022-08-05T03:44:29.015Z,97734.34
2022-08-05T03:46:58.418Z,97734.34
2022-08-05T03:49:51.058Z,97732.78
2022-08-05T03:52:38.457Z,97728.78
2022-08-05T03:56:05.391Z,97728.78
2022-08-05T03:58:05.472Z,97729.50
2022-08-05T04:00:35.174Z,97730.22
2022-08-05T04:03:05.913Z,97718.97
2022-08-05T04:05:37.039Z,97723.00
2022-08-05T04:08:30.063Z,97721.50
2022-08-05T04:11:01.825Z,97720.19
2022-08-05T04:13:51.288Z,97722.25
2022-08-05T04:16:25.494Z,97716.19
2022-08-05T04:19:01.620Z,97718.47
2022-08-05T04:22:08.789Z,97721.97
2022-08-05T04:24:22.534Z,97717.88
2022-08-05T04:26:52.525Z,97715.22
2022-08-05T04:29:21.785Z,97715.44
2022-08-05T04:31:52.708Z,97718.94
2022-08-05T04:34:32.399Z,97717.03
2022-08-05T04:37:03.087Z,97727.56
2022-08-05T04:39:35.263Z,97727.56
2022-08-05T04:42:04.841Z,97734.47
2022-08-05T04:44:34.158Z,97735.66
2022-08-05T04:47:08.817Z,97741.38
2022-08-05T04:50:01.645Z,97748.50
2022-08-05T04:52:29.234Z,97750.69
2022-08-05T04:55:14.434Z,97754.91
2022-08-05T04:57:47.684Z,97740.72
2022-08-05T05:00:17.790Z,97745.69
2022-08-05T05:02:47.235Z,97742.63
2022-08-05T05:05:28.109Z,97745.06
2022-08-05T05:08:06.210Z,97732.69
2022-08-05T05:10:56.209Z,97734.00
2022-08-05T05:13:26.184Z,97734.56
2022-08-05T05:16:05.985Z,97740.09
2022-08-05T05:18:36.427Z,97741.50
2022-08-05T05:21:06.266Z,97752.13
2022-08-05T05:24:02.460Z,97776.66
2022-08-05T05:26:28.805Z,97857.16
2022-08-05T05:29:02.550Z,97833.56
2022-08-05T05:34:07.327Z,97823.38
2022-08-05T05:36:37.442Z,97855.25
2022-08-05T05:39:10.909Z,97856.19
2022-08-05T05:41:41.778Z,97854.00
2022-08-05T05:44:36.045Z,97858.28
2022-08-05T05:47:04.261Z,97876.78
2022-08-05T05:49:33.940Z,97881.97
2022-08-05T05:52:07.343Z,97888.34
2022-08-05T05:54:51.056Z,97872.53
2022-08-05T05:57:20.668Z,97878.97
2022-08-05T05:59:50.037Z,97874.91
2022-08-05T06:02:32.318Z,97912.09
2022-08-05T06:05:10.494Z,97894.41
2022-08-05T06:07:57.976Z,97913.94
2022-08-05T06:10:36.256Z,97919.25
2022-08-05T06:13:06.079Z,97909.84
2022-08-05T06:16:27.294Z,97915.09
2022-08-05T06:18:31.196Z,97923.91
2022-08-05T06:21:00.978Z,97921.31
2022-08-05T06:23:32.115Z,97926.06
2022-08-05T06:26:21.462Z,97928.78
2022-08-05T06:28:53.105Z,97928.25
2022-08-05T06:31:22.646Z,97925.66
2022-08-05T06:34:07.881Z,97923.50
2022-08-05T06:36:56.983Z,97923.91
2022-08-05T06:39:28.336Z,97921.53
2022-08-05T06:42:01.469Z,97910.97
2022-08-05T06:44:33.551Z,97920.59
2022-08-05T06:47:02.911Z,97912.81
2022-08-05T06:50:01.317Z,97917.31
2022-08-05T06:52:36.647Z,97911.47
2022-08-05T06:55:08.485Z,97918.63
2022-08-05T06:58:03.092Z,97922.19
2022-08-05T07:00:27.272Z,97921.44
2022-08-05T07:02:58.965Z,97925.66
2022-08-05T07:05:37.387Z,97929.44
2022-08-05T07:08:10.034Z,97940.09
2022-08-05T07:10:53.222Z,97946.38
2022-08-05T07:13:59.468Z,97962.81
2022-08-05T07:18:08.337Z,97972.69
2022-08-05T07:22:22.199Z,97964.13
2022-08-05T07:24:58.716Z,97964.88
2022-08-05T07:27:58.852Z,97979.88
2022-08-05T07:30:24.297Z,97970.38
2022-08-05T07:32:55.229Z,97991.31
2022-08-05T07:36:02.052Z,97987.88
2022-08-05T07:38:33.741Z,97987.69
2022-08-05T07:42:08.968Z,97993.72
2022-08-05T07:43:59.627Z,97992.19
2022-08-05T07:46:30.815Z,97990.97
2022-08-05T07:49:05.528Z,97980.41
2022-08-05T07:51:53.199Z,97941.00
2022-08-05T07:54:31.042Z,97959.69
2022-08-05T07:57:22.539Z,97967.56
2022-08-05T07:59:53.669Z,97979.09
2022-08-05T08:02:30.732Z,97983.31
2022-08-05T08:05:00.809Z,97987.50
2022-08-05T08:07:39.757Z,97976.81
2022-08-05T08:10:20.479Z,98000.03
2022-08-05T08:12:50.307Z,97985.91
2022-08-05T08:16:33.366Z,97983.81
2022-08-05T08:18:13.877Z,97980.44
2022-08-05T08:21:02.683Z,97991.69
2022-08-05T08:24:01.605Z,98004.69
2022-08-05T08:26:26.811Z,98006.56
2022-08-05T08:29:29.252Z,98004.25
2022-08-05T08:31:48.516Z,97999.50
2022-08-05T08:34:18.533Z,98002.97
2022-08-05T08:36:54.665Z,97995.81
2022-08-05T08:39:25.999Z,97999.88
2022-08-05T08:41:59.903Z,98001.72
2022-08-05T08:45:24.221Z,98009.00
2022-08-05T08:48:06.233Z,98014.78
2022-08-05T08:50:30.935Z,98015.84
2022-08-05T08:53:12.140Z,98015.97
2022-08-05T08:56:05.016Z,98009.84
2022-08-05T08:58:43.927Z,98014.41
2022-08-05T09:01:18.205Z,98006.63
2022-08-05T09:03:57.337Z,98006.47
2022-08-05T09:06:32.169Z,98001.56
2022-08-05T09:09:05.732Z,97996.31
2022-08-05T09:11:52.416Z,98000.56
2022-08-05T09:14:56.937Z,98000.88
2022-08-05T09:17:40.052Z,97998.53
2022-08-05T09:20:05.201Z,97992.47
2022-08-05T09:23:18.460Z,97987.69
2022-08-05T09:26:01.629Z,97986.25
2022-08-05T09:28:34.695Z,97984.88
2022-08-05T09:31:43.666Z,97988.75
2022-08-05T09:34:03.262Z,97985.28
2022-08-05T09:36:56.447Z,97982.81
2022-08-05T09:39:44.708Z,97990.94
2022-08-05T09:42:24.302Z,97991.16
2022-08-05T09:45:17.293Z,97979.25
2022-08-05T09:47:56.062Z,97969.53
2022-08-05T09:50:44.645Z,97970.84
2022-08-05T09:53:22.721Z,97980.91
2022-08-05T09:56:11.363Z,97979.56
2022-08-05T09:58:42.514Z,97975.25
2022-08-05T10:01:22.592Z,97980.22
2022-08-05T10:04:12.454Z,97982.16
2022-08-05T10:06:49.933Z,97972.03
2022-08-05T10:09:29.312Z,97959.72
2022-08-05T10:12:18.621Z,97959.25
2022-08-05T10:15:20.932Z,97966.16
2022-08-05T10:18:23.073Z,97958.28
2022-08-05T10:21:08.395Z,97956.44
2022-08-05T10:23:59.846Z,97967.81
2022-08-05T10:26:32.386Z,97967.75
2022-08-05T10:29:03.186Z,97979.03
2022-08-05T10:32:52.141Z,97964.69
2022-08-05T10:34:25.854Z,97944.50
2022-08-05T10:37:00.799Z,97950.34
2022-08-05T10:39:58.931Z,97955.88
2022-08-05T10:42:33.741Z,97958.50
2022-08-05T10:45:21.326Z,97959.22
2022-08-05T10:48:31.114Z,97955.25
2022-08-05T10:51:01.957Z,97953.78
2022-08-05T10:53:46.608Z,97957.03
2022-08-05T10:56:25.329Z,97947.41
2022-08-05T10:59:07.278Z,97959.06
2022-08-05T11:01:55.522Z,97956.06
2022-08-05T11:04:36.637Z,97943.69
2022-08-05T11:07:11.935Z,97946.00
2022-08-05T11:10:03.942Z,97933.31
2022-08-05T11:12:42.238Z,97929.34
2022-08-05T11:15:23.385Z,97925.53
2022-08-05T11:18:32.583Z,97925.19
2022-08-05T11:21:11.393Z,97922.34
2022-08-05T11:24:04.750Z,97924.81
2022-08-05T11:26:49.437Z,97929.59
2022-08-05T11:29:41.239Z,97928.63
2022-08-05T11:32:30.037Z,97920.66
2022-08-05T11:35:00.258Z,97937.53
2022-08-05T11:38:29.748Z,97924.53
2022-08-05T11:41:36.799Z,97925.91
2022-08-05T11:44:06.730Z,97925.66
2022-08-05T11:47:10.450Z,97920.34
2022-08-05T11:49:49.738Z,97921.25
2022-08-05T11:52:29.345Z,97919.97
2022-08-05T11:55:07.611Z,97924.97
2022-08-05T11:58:08.289Z,97928.75
2022-08-05T12:00:38.146Z,97927.22
2022-08-05T12:03:28.586Z,97932.06
2022-08-05T12:06:09.891Z,97938.25
2022-08-05T12:08:49.737Z,97927.75
2022-08-05T12:11:23.042Z,97925.66
2022-08-05T12:14:03.886Z,97920.53
2022-08-05T12:16:39.014Z,97916.75
2022-08-05T12:19:10.045Z,97912.44
2022-08-05T12:21:59.341Z,97907.38
2022-08-05T12:24:30.710Z,97904.94
2022-08-05T12:27:00.165Z,97905.00
2022-08-05T12:29:39.649Z,97893.69
2022-08-05T12:32:09.946Z,97907.97
2022-08-05T12:34:40.519Z,97905.47
2022-08-05T12:37:17.534Z,97904.41
2022-08-05T12:39:53.961Z,97894.09
2022-08-05T12:42:25.246Z,97897.13
2022-08-05T12:44:54.789Z,97900.75
2022-08-05T12:47:31.421Z,97908.84
2022-08-05T12:50:02.006Z,97897.63
2022-08-05T12:52:41.951Z,97904.06
2022-08-05T12:55:33.039Z,97907.47
2022-08-05T12:58:50.460Z,97917.81
2022-08-05T13:02:04.062Z,97919.00
2022-08-05T13:03:45.556Z,97912.66
2022-08-05T13:06:19.899Z,97905.56
2022-08-05T13:08:52.333Z,97894.97
2022-08-05T13:11:59.634Z,97887.09
2022-08-05T13:14:38.323Z,97889.22
2022-08-05T13:17:20.518Z,97883.81
2022-08-05T13:20:09.181Z,97896.03
2022-08-05T13:22:43.518Z,97890.34
2022-08-05T13:25:19.406Z,97887.41
2022-08-05T13:27:53.594Z,97891.63
2022-08-05T13:30:35.066Z,97886.66
2022-08-05T13:33:06.547Z,97896.56
2022-08-05T13:35:47.114Z,97897.25
2022-08-05T13:38:30.610Z,97895.09
2022-08-05T13:41:03.904Z,97888.09
2022-08-05T13:43:44.434Z,97881.16
2022-08-05T13:47:01.960Z,97873.59
2022-08-05T13:49:12.863Z,97869.59
2022-08-05T13:51:46.513Z,97863.44
2022-08-05T13:54:17.110Z,97869.78
2022-08-05T13:56:51.992Z,97856.75
2022-08-05T13:59:24.357Z,97851.00
2022-08-05T14:01:58.337Z,97848.94
2022-08-05T14:04:52.063Z,97854.63
2022-08-05T14:07:26.056Z,97854.72
2022-08-05T14:10:28.529Z,97851.28
2022-08-05T14:12:58.494Z,97854.09
2022-08-05T14:16:05.573Z,97860.41
2022-08-05T14:18:22.971Z,97865.88
2022-08-05T14:20:55.141Z,97853.03
2022-08-05T14:23:26.439Z,97860.75
2022-08-05T14:25:59.848Z,97856.50
2022-08-05T14:28:33.325Z,97845.94
2022-08-05T14:31:03.983Z,97848.84
2022-08-05T14:33:59.662Z,97849.50
2022-08-05T14:36:29.668Z,97855.78
2022-08-05T14:38:59.616Z,97851.44
2022-08-05T14:41:32.118Z,97854.41
2022-08-05T14:44:20.075Z,97855.84
2022-08-05T14:46:50.946Z,97862.16
2022-08-05T14:49:20.329Z,97869.13
2022-08-05T14:51:49.836Z,97859.88
2022-08-05T14:54:28.681Z,97858.50
2022-08-05T14:56:59.771Z,97858.50
2022-08-05T14:59:35.698Z,97866.25
2022-08-05T15:02:14.809Z,97849.34
2022-08-05T15:04:47.900Z,97860.78
2022-08-05T15:08:05.719Z,97860.22
2022-08-05T15:10:10.125Z,97865.91
2022-08-05T15:13:00.306Z,97867.38
2022-08-05T15:15:54.117Z,97864.69
2022-08-05T15:18:19.166Z,97880.94
2022-08-05T15:20:48.922Z,97880.22
2022-08-05T15:23:18.556Z,97878.03
2022-08-05T15:25:52.098Z,97873.69
2022-08-05T15:28:27.370Z,97888.53
2022-08-05T15:30:57.733Z,97886.31
2022-08-05T15:34:05.144Z,97897.47
2022-08-05T15:36:17.578Z,97900.22
2022-08-05T15:40:58.761Z,97907.84
2022-08-05T15:41:56.247Z,97906.25
2022-08-05T15:44:30.346Z,97914.47
2022-08-05T15:47:00.390Z,97906.19
2022-08-05T15:49:48.007Z,97909.59
2022-08-05T15:52:52.231Z,97915.69
2022-08-05T15:55:15.981Z,97911.84
2022-08-05T15:57:48.014Z,97920.34
2022-08-05T16:00:26.005Z,97920.19
2022-08-05T16:03:02.297Z,97918.06
2022-08-05T16:05:31.610Z,97926.41
2022-08-05T16:08:00.865Z,97921.31
2022-08-05T16:10:30.485Z,97930.38
2022-08-05T16:13:00.322Z,97935.81
2022-08-05T16:15:32.615Z,97940.53
2022-08-05T16:18:04.343Z,97938.94
2022-08-05T16:20:38.462Z,97940.19
2022-08-05T16:23:08.679Z,97951.97
2022-08-05T16:25:38.786Z,97946.75
2022-08-05T16:28:10.393Z,97953.66
2022-08-05T16:30:41.597Z,97959.16
2022-08-05T16:33:11.070Z,97965.34
2022-08-05T16:35:42.338Z,97970.09
2022-08-05T16:38:18.776Z,97972.81
2022-08-05T16:41:00.891Z,97969.78
2022-08-05T16:43:34.246Z,97979.66
2022-08-05T16:46:23.584Z,97983.84
2022-08-05T16:48:53.818Z,97994.28
2022-08-05T16:51:24.985Z,98004.13
2022-08-05T16:54:04.019Z,98009.59
2022-08-05T16:56:36.406Z,98010.06
2022-08-05T16:59:09.061Z,98011.41
2022-08-05T17:01:54.477Z,98027.34
2022-08-05T17:04:27.421Z,98027.56
2022-08-05T17:07:01.209Z,98042.63
2022-08-05T17:09:57.150Z,98042.53
2022-08-05T17:12:51.834Z,98071.13
2022-08-05T17:15:15.717Z,98074.97
2022-08-05T17:17:55.148Z,98102.81
2022-08-05T17:20:24.943Z,98104.38
2022-08-05T17:22:55.501Z,98119.16
2022-08-05T17:25:39.533Z,98115.84
2022-08-05T17:28:09.918Z,98132.88
2022-08-05T17:30:50.692Z,98133.19
2022-08-05T17:33:21.871Z,98150.06
2022-08-05T17:36:08.783Z,98156.13
2022-08-05T17:38:39.844Z,98163.78
2022-08-05T17:41:22.968Z,98167.00
2022-08-05T17:43:58.561Z,98177.97
2022-08-05T17:46:28.230Z,98186.28
2022-08-05T17:48:58.010Z,98197.06
2022-08-05T17:51:27.431Z,98206.09
2022-08-05T17:53:56.664Z,98198.28
2022-08-05T17:56:28.412Z,98214.72
2022-08-05T17:58:57.876Z,98233.19
2022-08-05T18:01:27.307Z,98244.22
2022-08-05T18:03:59.232Z,98245.75
2022-08-05T18:06:34.264Z,98271.47
2022-08-05T18:09:04.031Z,98271.97
2022-08-05T18:11:33.992Z,98288.13
2022-08-05T18:14:07.410Z,98291.91
2022-08-05T18:16:46.775Z,98293.00
2022-08-05T18:19:23.216Z,98302.38
2022-08-05T18:22:09.726Z,98302.34
2022-08-05T18:24:40.969Z,98316.56
2022-08-05T18:27:18.269Z,98318.75
2022-08-05T18:29:53.635Z,98311.16
2022-08-05T18:32:27.849Z,98326.19
2022-08-05T18:34:57.928Z,98328.69
2022-08-05T18:37:34.006Z,98327.69
2022-08-05T18:40:34.046Z,98343.59
2022-08-05T18:42:59.234Z,98345.25
2022-08-05T18:45:41.904Z,98354.72
2022-08-05T18:48:30.249Z,98360.75
2022-08-05T18:52:04.970Z,98366.72
2022-08-05T18:54:02.925Z,98373.25
2022-08-05T18:56:32.209Z,98386.41
2022-08-05T18:59:01.953Z,98387.66
2022-08-05T19:01:56.961Z,98393.28
2022-08-05T19:04:29.402Z,98385.84
2022-08-05T19:06:58.909Z,98384.78
2022-08-05T19:09:28.152Z,98391.09
2022-08-05T19:12:08.767Z,98388.69
2022-08-05T19:15:00.011Z,98393.13
2022-08-05T19:17:59.464Z,98398.00
2022-08-05T19:20:19.071Z,98408.41
2022-08-05T19:22:50.041Z,98401.75
2022-08-05T19:25:30.235Z,98407.91
2022-08-05T19:28:00.533Z,98419.78
2022-08-05T19:30:29.970Z,98415.13
2022-08-05T19:32:59.224Z,98412.03
2022-08-05T19:35:55.670Z,98416.31
2022-08-05T19:38:21.508Z,98424.28
2022-08-05T19:40:55.865Z,98420.50
2022-08-05T19:44:06.134Z,98422.53
2022-08-05T19:46:16.747Z,98433.69
2022-08-05T19:49:02.810Z,98442.44
2022-08-05T19:52:04.498Z,98437.75
2022-08-05T19:54:31.272Z,98440.59
2022-08-05T19:57:06.273Z,98438.84
2022-08-05T19:59:59.352Z,98436.22
2022-08-05T20:02:27.803Z,98435.69
2022-08-05T20:04:58.344Z,98432.91
2022-08-05T20:07:48.120Z,98436.69
2022-08-05T20:10:22.347Z,98452.97
2022-08-05T20:12:55.156Z,98458.53
2022-08-05T20:15:52.093Z,98462.66
2022-08-05T20:18:33.375Z,98476.31
2022-08-05T20:21:04.659Z,98468.84
2022-08-05T20:23:39.569Z,98480.25
2022-08-05T20:26:20.341Z,98472.50
2022-08-05T20:28:52.769Z,98485.69
2022-08-05T20:31:37.632Z,98481.59
2022-08-05T20:34:12.786Z,98481.88
2022-08-05T20:36:43.535Z,98474.84
2022-08-05T20:39:16.343Z,98478.34
2022-08-05T20:41:47.882Z,98486.41
2022-08-05T20:44:29.004Z,98479.22
2022-08-05T20:47:01.040Z,98495.47
2022-08-05T20:49:30.328Z,98521.69
2022-08-05T20:52:07.785Z,98520.94
2022-08-05T20:54:59.488Z,98531.34
2022-08-05T20:57:43.832Z,98548.47
2022-08-05T21:00:40.376Z,98558.59
2022-08-05T21:03:08.064Z,98555.22
2022-08-05T21:05:53.708Z,98559.09
2022-08-05T21:08:42.086Z,98562.31
2022-08-05T21:12:07.086Z,98546.16
2022-08-05T21:14:03.449Z,98535.31
2022-08-05T21:16:34.946Z,98543.53
2022-08-05T21:19:04.803Z,98548.78
2022-08-05T21:21:39.619Z,98535.34
2022-08-05T21:24:15.619Z,98511.72
2022-08-05T21:26:53.612Z,98512.31
2022-08-05T21:29:31.741Z,98520.72
2022-08-05T21:32:02.376Z,98534.44
2022-08-05T21:34:32.962Z,98521.22
2022-08-05T21:37:05.049Z,98497.63
2022-08-05T21:39:34.861Z,98557.31
2022-08-05T21:42:40.845Z,98576.44
2022-08-05T21:44:59.134Z,98596.06
2022-08-05T21:47:54.913Z,98618.28
2022-08-05T21:50:18.324Z,98632.19
2022-08-05T21:52:47.645Z,98650.16
2022-08-05T21:55:17.313Z,98642.81
2022-08-05T21:57:46.734Z,98609.03
2022-08-05T22:00:16.451Z,98602.28
2022-08-05T22:02:46.081Z,98588.06
2022-08-05T22:05:15.763Z,98583.66
2022-08-05T22:07:59.241Z,98586.66
2022-08-05T22:10:31.692Z,98581.28
2022-08-05T22:13:58.854Z,98583.47
2022-08-05T22:16:01.294Z,98589.78
2022-08-05T22:18:34.075Z,98583.16
2022-08-05T22:21:04.202Z,98621.31
2022-08-05T22:24:01.134Z,98657.53
2022-08-05T22:26:49.979Z,98690.34
2022-08-05T22:29:26.718Z,98681.44
2022-08-05T22:32:02.670Z,98690.78
2022-08-05T22:34:32.638Z,98703.22
2022-08-05T22:37:03.986Z,98692.91
2022-08-05T22:39:34.880Z,98649.56
2022-08-05T22:42:12.676Z,98629.78
2022-08-05T22:44:48.450Z,98643.00
2022-08-05T22:47:29.699Z,98651.50
2022-08-05T22:50:20.635Z,98661.38
2022-08-05T22:52:51.417Z,98644.97
2022-08-05T22:55:22.488Z,98642.06
2022-08-05T22:57:53.615Z,98657.28
2022-08-05T23:00:26.545Z,98652.78
2022-08-05T23:02:56.595Z,98646.88
2022-08-05T23:05:27.438Z,98641.91
2022-08-05T23:07:56.899Z,98638.22
2022-08-05T23:10:26.332Z,98623.88
2022-08-05T23:12:56.377Z,98630.88
2022-08-05T23:15:29.380Z,98647.09
2022-08-05T23:18:06.106Z,98667.75
2022-08-05T23:20:43.133Z,98668.13
2022-08-05T23:23:12.734Z,98669.94
2022-08-05T23:25:54.959Z,98677.50
2022-08-05T23:28:29.105Z,98684.69
2022-08-05T23:31:02.238Z,98680.63
2022-08-05T23:34:02.993Z,98681.72
2022-08-05T23:36:40.197Z,98670.25
2022-08-05T23:39:17.202Z,98650.00
2022-08-05T23:41:53.898Z,98648.53
2022-08-05T23:44:27.944Z,98668.81
2022-08-05T23:47:02.575Z,98687.59
2022-08-05T23:49:43.634Z,98710.84
2022-08-05T23:52:30.759Z,98698.31
2022-08-05T23:55:11.964Z,98697.91
2022-08-05T23:57:42.546Z,98678.34
